Terminal Aerodrome Forecast
Issued by NWS Wilmington, OH

Home | Current Version | Previous Version | Text Only | Print | Product List | Glossary On
Versions: 1 2 3 4 5 6 7 8 9
986
FTUS41 KILN 242335
TAFDAY
TAF
KDAY 242335Z 2500/2524 10012KT P6SM BKN080
     FM250300 11009KT P6SM OVC040
     FM250700 11007KT P6SM OVC025
     FM251200 12007KT P6SM BKN035
     FM251600 14008KT P6SM BKN050=

USA.gov is the U.S. government's official web portal to all federal, state and local government web resources and services.